Login: 
Passwort: 
Neuanmeldung 
Passwort vergessen



Das neue Heft erscheint am 2. Oktober
Entkernt - neue DTO-Regelung in Kraft
Exploration zur Leserreise 2019
Erledigt
Mikroturbinen und ihre Anwendungen
Vogelschlag
Mein Weg zum Instrument Rating
Engagierter Journalismus aus Sicht des eigenen Cockpits
Sortieren nach:  Datum - neue zuerst |  Datum - alte zuerst |  Bewertung

Sonstiges | METAR Sichtweite, militärisch manuell?
5. Februar 2018 11:35 Uhr: Von Alexander Callidus 

Hallo!

EHDL 051025Z AUTO 08009KT 360V130 9999 SCT014 BKN016 BKN037 02/M01 Q1027 GRN

ist eine automatische Messung. Sichtweite>10km, aber GRN, was laut DWD 3,7-5km entspricht. Beruht die militärische Klassifikation auf Beobachtungen??

Kein Einzelfall:

ETWM 051020Z 07007KT 9999 SCT013 BKN019 01/M02 Q1029 WHT

5. Februar 2018 11:44 Uhr: Von Christoph Winter an Alexander Callidus

Lt DWD Link, den du gepostet hast, bedeuted Green: Sicht 3700-5000m und/oder Ceiling 700-1500ft. Damit ist Green durch die Ceiling 1400ft erfüllt.

5. Februar 2018 11:46 Uhr: Von Corinna-Ines Runge an Alexander Callidus

Das liegt daran dass der Color State nicht nur von der visibility, sondern auch von der ceiling abhängt.

GRN ist bei VIS 3700-5000 und/oder Ceiling 700-1500ft

Ob der Platz ein Messgerät oder einen Beobachter hat, hat damit nichts zu tun

5. Februar 2018 12:00 Uhr: Von Alexander Callidus an Corinna-Ines Runge

Lesen bildet. Hätte ich ja auch machen können. Danke!

5. Februar 2018 16:35 Uhr: Von Norbert S. an Alexander Callidus Bewertung: +2.00 [2]

" Damit ist Green durch die Ceiling 1400ft erfüllt. "

Also ich habe einmal gelernt, dass SCT - scattered keine ceiling ist. Erst ab BKN - broken.

Hat sich das mit fliegen2.0 geändert?

Ceiling: the height above ground or water of the base of the lowest layer of cloud below 6 000 metres (20 000 feet) covering more than half the sky. (ICAO Annex 2)

Ceiling ist hier in Euerer Diskussion nicht richtig, gemeint ist cloud base, wie ich gerade google -te.

Metar color codes: ... Minimum base of lowest cloud (SCT or more) above aerodrome level ...

Fazit: hier irrt der DWD in der verlinkten Tabelle / Spalte "Ceiling".


5 Beiträge Seite 1 von 1

 

Home
Impressum
© 2004-2018 Airwork Press GmbH. Alle Rechte vorbehalten. Vervielfältigung nur mit Genehmigung der Airwork Press GmbH. Die Nutzung des Pilot und Flugzeug Internet-Forums unterliegt den allgemeinen Nutzungsbedingungen (hier). Es gelten unsere Datenschutzerklärung unsere Allgemeinen Geschäftsbedingungen (hier). Kartendaten: © OpenStreetMap-Mitwirkende, SRTM | Kartendarstellung: © OpenTopoMap (CC-BY-SA) Hub Version 12.14.04
Zur mobilen Ansicht wechseln
Seitenanfang